Terminal Aerodrome Forecast
Issued by NWS

Home | Current Version | Previous Version | Text Only | Print | Product List | Glossary On
Versions: 1 2 3 4 5 6 7 8 9 10 11 12
425
FTUS42 KTBW 200523
TAFLAL
TAF
KLAL 200523Z 2006/2106 VRB03KT P6SM SCT250
     FM201400 10004KT P6SM FEW020 SCT200
     FM201800 10008KT P6SM VCTS SCT035CB BKN150
     FM210200 12004KT P6SM BKN250
      AMD NOT SKED TIL 201100=

USA.gov is the U.S. government's official web portal to all federal, state and local government web resources and services.